createdAt,value
2018-09-14T00:02:10.004Z,95292.23
2018-09-14T00:04:35.981Z,95285.91
2018-09-14T00:07:01.987Z,95292.03
2018-09-14T00:09:27.963Z,95289.07
2018-09-14T00:11:53.938Z,95289.67
2018-09-14T00:14:19.912Z,95287.48
2018-09-14T00:16:45.925Z,95285.13
2018-09-14T00:19:11.900Z,95286.10
2018-09-14T00:21:37.881Z,95282.94
2018-09-14T00:24:03.862Z,95280.58
2018-09-14T00:26:29.874Z,95282.13
2018-09-14T00:28:55.851Z,95288.05
2018-09-14T00:31:21.832Z,95283.11
2018-09-14T00:33:47.817Z,95284.48
2018-09-14T00:36:13.791Z,95278.56
2018-09-14T00:38:39.783Z,95279.56
2018-09-14T00:41:05.767Z,95280.95
2018-09-14T00:43:31.750Z,95277.78
2018-09-14T00:45:57.731Z,95281.32
2018-09-14T00:48:23.704Z,95277.38
2018-09-14T00:50:49.676Z,95278.36
2018-09-14T00:53:15.654Z,95268.48
2018-09-14T00:55:41.645Z,95269.27
2018-09-14T00:58:07.626Z,95268.48
2018-09-14T01:00:33.613Z,95263.34
2018-09-14T01:02:59.593Z,95261.58
2018-09-14T01:05:25.582Z,95267.68
2018-09-14T01:07:51.552Z,95264.34
2018-09-14T01:10:17.532Z,95264.11
2018-09-14T01:12:43.510Z,95265.09
2018-09-14T01:15:09.489Z,95264.68
2018-09-14T01:17:35.474Z,95259.97
2018-09-14T01:20:01.475Z,95267.84
2018-09-14T01:22:27.431Z,95267.84
2018-09-14T01:24:53.411Z,95266.06
2018-09-14T01:27:19.383Z,95263.30
2018-09-14T01:29:45.376Z,95265.69
2018-09-14T01:32:11.365Z,95269.42
2018-09-14T01:34:37.346Z,95271.21
2018-09-14T01:37:03.334Z,95269.42
2018-09-14T01:39:29.313Z,95269.02
2018-09-14T01:41:55.294Z,95269.02
2018-09-14T01:44:21.275Z,95270.00
2018-09-14T01:46:47.249Z,95274.71
2018-09-14T01:49:13.245Z,95270.57
2018-09-14T01:51:39.215Z,95270.16
2018-09-14T01:54:05.203Z,95265.66
2018-09-14T01:56:31.187Z,95269.80
2018-09-14T01:58:57.176Z,95266.63
2018-09-14T02:01:23.160Z,95265.25
2018-09-14T02:03:49.143Z,95261.27
2018-09-14T02:06:15.120Z,95263.46
2018-09-14T02:08:41.088Z,95265.01
2018-09-14T02:11:07.079Z,95270.36
2018-09-14T02:13:33.058Z,95257.70
2018-09-14T02:15:59.041Z,95256.73
2018-09-14T02:18:25.028Z,95259.89
2018-09-14T02:20:51.004Z,95265.01
2018-09-14T02:23:16.983Z,95263.23
2018-09-14T02:25:43.000Z,95269.75
2018-09-14T02:28:08.949Z,95264.41
2018-09-14T02:30:34.932Z,95260.27
2018-09-14T02:33:00.914Z,95259.86
2018-09-14T02:35:26.888Z,95262.81
2018-09-14T02:37:52.861Z,95257.50
2018-09-14T02:40:18.846Z,95258.88
2018-09-14T02:42:44.824Z,95250.39
2018-09-14T02:45:10.807Z,95243.09
2018-09-14T02:47:36.791Z,95238.14
2018-09-14T02:50:02.771Z,95241.30
2018-09-14T02:52:28.749Z,95242.69
2018-09-14T02:54:54.724Z,95242.69
2018-09-14T02:57:20.720Z,95245.45
2018-09-14T02:59:46.705Z,95255.67
2018-09-14T03:02:12.682Z,95259.02
2018-09-14T03:04:38.662Z,95255.27
2018-09-14T03:07:04.640Z,95263.39
2018-09-14T03:09:30.618Z,95254.30
2018-09-14T03:11:56.604Z,95254.50
2018-09-14T03:14:22.590Z,95261.77
2018-09-14T03:16:48.576Z,95268.30
2018-09-14T03:19:14.550Z,95260.59
2018-09-14T03:21:40.540Z,95266.11
2018-09-14T03:24:06.517Z,95272.03
2018-09-14T03:26:32.498Z,95272.03
2018-09-14T03:28:58.477Z,95273.02
2018-09-14T03:31:24.459Z,95278.53
2018-09-14T03:33:50.443Z,95273.58
2018-09-14T03:36:16.426Z,95280.89
2018-09-14T03:38:42.420Z,95278.13
2018-09-14T03:41:08.401Z,95275.37
2018-09-14T03:43:34.384Z,95279.51
2018-09-14T03:46:00.367Z,95280.89
2018-09-14T03:48:26.346Z,95278.30
2018-09-14T03:50:52.318Z,95281.86
2018-09-14T03:53:18.313Z,95280.08
2018-09-14T03:55:44.282Z,95279.11
2018-09-14T03:58:10.258Z,95282.06
2018-09-14T04:00:36.288Z,95281.05
2018-09-14T04:03:02.268Z,95281.45
2018-09-14T04:05:28.245Z,95280.08
2018-09-14T04:07:54.239Z,95282.84
2018-09-14T04:10:20.214Z,95275.94
2018-09-14T04:12:46.190Z,95282.84
2018-09-14T04:15:12.183Z,95282.27
2018-09-14T04:17:38.157Z,95289.58
2018-09-14T04:20:04.145Z,95289.98
2018-09-14T04:22:30.146Z,95291.16
2018-09-14T04:24:56.135Z,95293.92
2018-09-14T04:27:22.109Z,95299.44
2018-09-14T04:29:48.100Z,95300.41
2018-09-14T04:32:14.073Z,95303.98
2018-09-14T04:34:40.058Z,95303.58
2018-09-14T04:37:06.039Z,95299.03
2018-09-14T04:39:32.111Z,95308.70
2018-09-14T04:41:58.107Z,95302.80
2018-09-14T04:44:24.157Z,95304.19
2018-09-14T04:46:50.134Z,95302.00
2018-09-14T04:49:16.120Z,95308.89
2018-09-14T04:51:42.105Z,95308.49
2018-09-14T04:54:08.105Z,95304.75
2018-09-14T04:56:34.085Z,95301.59
2018-09-14T04:59:00.063Z,95304.96
2018-09-14T05:01:26.045Z,95308.53
2018-09-14T05:03:52.032Z,95307.95
2018-09-14T05:06:18.018Z,95309.14
2018-09-14T05:08:44.068Z,95300.08
2018-09-14T05:11:10.060Z,95301.47
2018-09-14T05:13:36.050Z,95303.98
2018-09-14T05:16:02.043Z,95297.86
2018-09-14T05:18:28.047Z,95292.91
2018-09-14T05:20:54.063Z,95291.93
2018-09-14T05:23:20.035Z,95293.88
2018-09-14T05:25:46.015Z,95295.86
2018-09-14T05:28:11.984Z,95296.23
2018-09-14T05:30:37.997Z,95294.48
2018-09-14T05:33:04.000Z,95294.65
2018-09-14T05:35:29.986Z,95293.10
2018-09-14T05:37:55.958Z,95301.38
2018-09-14T05:40:21.956Z,95298.79
2018-09-14T05:42:47.929Z,95298.39
2018-09-14T05:45:13.908Z,95294.45
2018-09-14T05:47:39.897Z,95299.77
2018-09-14T05:50:05.918Z,95293.06
2018-09-14T05:52:31.867Z,95302.32
2018-09-14T05:54:57.895Z,95298.59
2018-09-14T05:57:24.523Z,95307.84
2018-09-14T05:59:50.535Z,95310.60
2018-09-14T06:02:16.488Z,95311.17
2018-09-14T06:04:42.457Z,95310.77
2018-09-14T06:07:08.456Z,95318.64
2018-09-14T06:09:34.479Z,95320.02
2018-09-14T06:12:00.425Z,95320.02
2018-09-14T06:14:26.400Z,95320.22
2018-09-14T06:16:52.424Z,95321.20
2018-09-14T06:19:18.422Z,95326.72
2018-09-14T06:21:44.461Z,95316.08
2018-09-14T06:24:10.451Z,95322.17
2018-09-14T06:26:36.437Z,95321.20
2018-09-14T06:29:02.410Z,95318.44
2018-09-14T06:31:29.266Z,95328.09
2018-09-14T06:33:55.244Z,95326.31
2018-09-14T06:36:28.530Z,95324.94
2018-09-14T06:38:59.209Z,95323.15
2018-09-14T06:41:25.190Z,95325.91
2018-09-14T06:43:51.168Z,95320.39
2018-09-14T06:46:17.152Z,95325.10
2018-09-14T06:48:43.140Z,95322.75
2018-09-14T06:51:09.127Z,95319.58
2018-09-14T06:53:35.134Z,95321.94
2018-09-14T06:56:01.114Z,95324.70
2018-09-14T06:58:27.141Z,95318.20
2018-09-14T07:00:53.099Z,95325.50
2018-09-14T07:03:23.976Z,95323.72
2018-09-14T07:05:49.975Z,95322.34
2018-09-14T07:08:15.951Z,95322.95
2018-09-14T07:10:41.972Z,95330.63
2018-09-14T07:13:07.990Z,95332.81
2018-09-14T07:15:34.291Z,95320.96
2018-09-14T07:18:00.243Z,95325.50
2018-09-14T07:20:27.464Z,95324.70
2018-09-14T07:22:53.412Z,95326.08
2018-09-14T07:25:19.408Z,95332.41
2018-09-14T07:27:45.400Z,95333.38
2018-09-14T07:30:11.388Z,95332.20
2018-09-14T07:32:37.402Z,95327.86
2018-09-14T07:35:03.369Z,95324.70
2018-09-14T07:37:29.362Z,95327.86
2018-09-14T07:39:55.382Z,95322.34
2018-09-14T07:42:21.383Z,95327.45
2018-09-14T07:44:47.337Z,95325.70
2018-09-14T07:47:13.322Z,95317.99
2018-09-14T07:49:39.301Z,95324.33
2018-09-14T07:52:05.291Z,95321.94
2018-09-14T07:54:31.335Z,95326.67
2018-09-14T07:56:57.330Z,95319.98
2018-09-14T07:59:23.304Z,95320.59
2018-09-14T08:01:49.293Z,95323.43
2018-09-14T08:04:15.281Z,95312.77
2018-09-14T08:06:41.259Z,95316.33
2018-09-14T08:09:07.247Z,95320.91
2018-09-14T08:11:33.230Z,95317.58
2018-09-14T08:13:59.241Z,95320.14
2018-09-14T08:16:25.381Z,95321.60
2018-09-14T08:18:51.382Z,95319.28
2018-09-14T08:21:17.407Z,95323.26
2018-09-14T08:23:43.346Z,95325.08
2018-09-14T08:26:09.347Z,95322.94
2018-09-14T08:28:35.347Z,95321.19
2018-09-14T08:31:01.351Z,95314.08
2018-09-14T08:33:27.370Z,95320.98
2018-09-14T08:35:53.362Z,95312.46
2018-09-14T08:38:19.358Z,95307.75
2018-09-14T08:40:45.338Z,95313.47
2018-09-14T08:43:11.329Z,95311.13
2018-09-14T08:45:37.306Z,95309.33
2018-09-14T08:48:03.350Z,95306.17
2018-09-14T08:50:29.265Z,95305.80
2018-09-14T08:52:55.245Z,95308.16
2018-09-14T08:55:21.222Z,95303.03
2018-09-14T08:57:47.210Z,95300.64
2018-09-14T09:00:13.193Z,95299.67
2018-09-14T09:02:39.188Z,95296.91
2018-09-14T09:05:05.167Z,95296.34
2018-09-14T09:07:31.166Z,95301.28
2018-09-14T09:09:57.146Z,95303.07
2018-09-14T09:12:23.155Z,95296.17
2018-09-14T09:14:49.137Z,95292.77
2018-09-14T09:17:15.108Z,95296.74
2018-09-14T09:19:41.105Z,95301.57
2018-09-14T09:22:07.103Z,95294.50
2018-09-14T09:24:33.188Z,95293.33
2018-09-14T09:26:59.182Z,95296.32
2018-09-14T09:29:25.169Z,95297.09
2018-09-14T09:31:51.150Z,95294.30
2018-09-14T09:34:17.157Z,95294.91
2018-09-14T09:36:43.168Z,95298.64
2018-09-14T09:39:09.165Z,95286.79
2018-09-14T09:41:35.166Z,95288.00
2018-09-14T09:44:01.216Z,95293.69
2018-09-14T09:46:27.137Z,95295.88
2018-09-14T09:48:53.115Z,95288.61
2018-09-14T09:51:19.192Z,95287.09
2018-09-14T09:53:45.117Z,95280.80
2018-09-14T09:56:11.166Z,95287.67
2018-09-14T09:58:37.157Z,95281.74
2018-09-14T10:01:03.134Z,95279.39
2018-09-14T10:03:29.162Z,95274.84
2018-09-14T10:05:55.157Z,95273.46
2018-09-14T10:08:21.152Z,95271.88
2018-09-14T10:10:47.155Z,95269.72
2018-09-14T10:13:13.135Z,95270.73
2018-09-14T10:15:39.154Z,95270.16
2018-09-14T10:18:05.136Z,95265.21
2018-09-14T10:20:31.165Z,95261.88
2018-09-14T10:22:57.115Z,95264.81
2018-09-14T10:25:23.121Z,95254.73
2018-09-14T10:27:49.124Z,95258.48
2018-09-14T10:30:15.127Z,95254.94
2018-09-14T10:32:41.126Z,95255.91
2018-09-14T10:35:07.182Z,95253.16
2018-09-14T10:37:33.101Z,95254.94
2018-09-14T10:39:59.137Z,95258.14
2018-09-14T10:42:25.102Z,95254.33
2018-09-14T10:44:51.180Z,95254.98
2018-09-14T10:47:17.161Z,95258.71
2018-09-14T10:49:43.176Z,95247.70
2018-09-14T10:52:09.205Z,95251.68
2018-09-14T10:54:35.205Z,95251.48
2018-09-14T10:57:01.188Z,95247.13
2018-09-14T10:59:27.191Z,95253.23
2018-09-14T11:01:53.170Z,95249.66
2018-09-14T11:04:19.213Z,95246.09
2018-09-14T11:06:45.250Z,95240.97
2018-09-14T11:09:11.333Z,95235.05
2018-09-14T11:11:37.313Z,95240.97
2018-09-14T11:14:03.376Z,95227.77
2018-09-14T11:16:29.370Z,95236.39
2018-09-14T11:18:55.386Z,95229.08
2018-09-14T11:21:21.377Z,95223.11
2018-09-14T11:23:47.419Z,95222.30
2018-09-14T11:26:13.420Z,95222.47
2018-09-14T11:28:39.412Z,95217.55
2018-09-14T11:31:05.443Z,95220.89
2018-09-14T11:33:31.427Z,95219.91
2018-09-14T11:35:57.472Z,95211.27
2018-09-14T11:38:23.543Z,95211.47
2018-09-14T11:40:49.465Z,95209.11
2018-09-14T11:43:15.441Z,95210.86
2018-09-14T11:45:41.451Z,95211.06
2018-09-14T11:48:07.462Z,95205.50
2018-09-14T11:50:33.435Z,95200.55
2018-09-14T11:52:59.446Z,95201.13
2018-09-14T11:55:25.445Z,95195.20
2018-09-14T11:57:51.422Z,95193.24
2018-09-14T12:00:17.433Z,95195.20
2018-09-14T12:02:43.435Z,95196.78
2018-09-14T12:05:09.436Z,95195.80
2018-09-14T12:07:35.432Z,95196.95
2018-09-14T12:10:01.405Z,95199.13
2018-09-14T12:12:27.386Z,95187.86
2018-09-14T12:14:53.383Z,95203.45
2018-09-14T12:17:19.366Z,95194.36
2018-09-14T12:19:45.386Z,95194.95
2018-09-14T12:22:11.423Z,95196.14
2018-09-14T12:24:37.406Z,95191.80
2018-09-14T12:27:03.397Z,95191.80
2018-09-14T12:29:29.391Z,95185.30
2018-09-14T12:31:55.569Z,95185.87
2018-09-14T12:34:21.596Z,95196.91
2018-09-14T12:36:47.612Z,95191.39
2018-09-14T12:39:13.589Z,95184.28
2018-09-14T12:41:39.583Z,95188.22
2018-09-14T12:44:05.553Z,95190.58
2018-09-14T12:46:31.586Z,95180.72
2018-09-14T12:48:57.562Z,95183.07
2018-09-14T12:51:23.534Z,95178.93
2018-09-14T12:53:49.517Z,95178.53
2018-09-14T12:56:15.589Z,95178.13
2018-09-14T12:58:41.549Z,95175.77
2018-09-14T13:01:07.534Z,95177.15
2018-09-14T13:03:33.523Z,95174.39
2018-09-14T13:05:59.550Z,95173.01
2018-09-14T13:08:25.604Z,95173.81
2018-09-14T13:10:51.596Z,95168.46
2018-09-14T13:13:17.590Z,95179.91
2018-09-14T13:15:43.589Z,95182.67
2018-09-14T13:18:09.571Z,95180.48
2018-09-14T13:20:35.592Z,95172.20
2018-09-14T13:23:01.602Z,95173.58
2018-09-14T13:25:27.740Z,95174.59
2018-09-14T13:27:53.971Z,95174.96
2018-09-14T13:30:19.916Z,95170.45
2018-09-14T13:32:46.940Z,95170.82
2018-09-14T13:35:12.938Z,95174.79
2018-09-14T13:37:39.028Z,95176.75
2018-09-14T13:40:05.051Z,95169.84
2018-09-14T13:42:31.044Z,95170.65
2018-09-14T13:44:57.037Z,95167.52
2018-09-14T13:47:23.020Z,95161.86
2018-09-14T13:49:48.994Z,95163.45
2018-09-14T13:52:14.998Z,95157.92
2018-09-14T13:54:40.975Z,95163.28
2018-09-14T13:57:06.956Z,95165.63
2018-09-14T13:59:33.006Z,95166.44
2018-09-14T14:01:59.008Z,95168.97
2018-09-14T14:04:24.924Z,95168.80
2018-09-14T14:06:50.906Z,95171.19
2018-09-14T14:09:16.887Z,95175.37
2018-09-14T14:11:42.872Z,95163.38
2018-09-14T14:14:08.889Z,95172.06
2018-09-14T14:16:34.869Z,95170.72
2018-09-14T14:19:00.873Z,95169.14
2018-09-14T14:21:26.874Z,95166.17
2018-09-14T14:23:52.855Z,95170.72
2018-09-14T14:26:18.832Z,95164.39
2018-09-14T14:28:44.830Z,95164.97
2018-09-14T14:31:10.809Z,95170.31
2018-09-14T14:33:36.815Z,95166.38
2018-09-14T14:36:02.815Z,95176.45
2018-09-14T14:38:28.855Z,95171.16
2018-09-14T14:40:54.793Z,95173.52
2018-09-14T14:43:20.834Z,95175.47
2018-09-14T14:45:46.859Z,95174.69
2018-09-14T14:48:12.837Z,95175.47
2018-09-14T14:50:38.831Z,95176.08
2018-09-14T14:53:04.862Z,95173.95
2018-09-14T14:55:30.834Z,95175.53
2018-09-14T14:57:56.888Z,95173.58
2018-09-14T15:00:22.954Z,95175.73
2018-09-14T15:02:48.971Z,95178.94
2018-09-14T15:05:14.944Z,95179.98
2018-09-14T15:07:40.932Z,95186.88
2018-09-14T15:10:06.917Z,95190.25
2018-09-14T15:12:32.942Z,95180.02
2018-09-14T15:14:58.919Z,95184.36
2018-09-14T15:17:24.927Z,95183.75
2018-09-14T15:19:50.907Z,95182.38
2018-09-14T15:22:16.898Z,95182.77
2018-09-14T15:24:45.546Z,95179.81
2018-09-14T15:27:11.494Z,95183.95
2018-09-14T15:29:37.507Z,95189.45
2018-09-14T15:32:03.510Z,95183.75
2018-09-14T15:34:29.525Z,95191.84
2018-09-14T15:36:55.510Z,95190.28
2018-09-14T15:39:21.493Z,95189.88
2018-09-14T15:41:47.505Z,95192.23
2018-09-14T15:44:13.517Z,95192.00
2018-09-14T15:46:39.524Z,95194.36
2018-09-14T15:49:05.593Z,95195.54
2018-09-14T15:51:31.519Z,95197.16
2018-09-14T15:53:57.495Z,95203.83
2018-09-14T15:56:23.498Z,95208.78
2018-09-14T15:58:49.501Z,95202.64
2018-09-14T16:01:15.530Z,95206.95
2018-09-14T16:03:41.549Z,95208.14
2018-09-14T16:06:07.523Z,95205.55
2018-09-14T16:08:33.507Z,95217.16
2018-09-14T16:10:59.529Z,95214.20
2018-09-14T16:13:25.538Z,95217.94
2018-09-14T16:15:51.482Z,95218.17
2018-09-14T16:18:17.495Z,95226.66
2018-09-14T16:20:43.445Z,95218.20
2018-09-14T16:23:09.446Z,95218.78
2018-09-14T16:25:35.440Z,95220.56
2018-09-14T16:28:01.408Z,95226.52
2018-09-14T16:30:27.387Z,95227.70
2018-09-14T16:32:53.368Z,95228.27
2018-09-14T16:35:19.363Z,95241.23
2018-09-14T16:37:45.345Z,95238.65
2018-09-14T16:40:11.381Z,95236.42
2018-09-14T16:42:37.352Z,95243.52
2018-09-14T16:45:03.351Z,95243.48
2018-09-14T16:47:29.357Z,95243.25
2018-09-14T16:49:55.332Z,95248.58
2018-09-14T16:52:21.361Z,95251.34
2018-09-14T16:54:47.357Z,95251.50
2018-09-14T16:57:13.334Z,95247.56
2018-09-14T16:59:39.312Z,95250.48
2018-09-14T17:02:05.314Z,95244.97
2018-09-14T17:04:31.314Z,95250.28
2018-09-14T17:06:57.287Z,95253.41
2018-09-14T17:09:23.265Z,95257.55
2018-09-14T17:11:49.266Z,95259.71
2018-09-14T17:14:15.260Z,95253.98
2018-09-14T17:16:41.232Z,95261.86
2018-09-14T17:19:07.233Z,95262.84
2018-09-14T17:21:33.320Z,95268.77
2018-09-14T17:23:59.214Z,95268.36
2018-09-14T17:26:25.218Z,95274.70
2018-09-14T17:28:51.175Z,95276.44
2018-09-14T17:31:17.155Z,95281.16
2018-09-14T17:33:43.146Z,95282.53
2018-09-14T17:36:09.132Z,95290.98
2018-09-14T17:38:35.118Z,95285.66
2018-09-14T17:41:01.098Z,95284.85
2018-09-14T17:43:27.080Z,95287.61
2018-09-14T17:45:53.079Z,95290.58
2018-09-14T17:48:19.063Z,95294.88
2018-09-14T17:50:45.048Z,95296.06
2018-09-14T17:53:11.032Z,95302.55
2018-09-14T17:55:37.068Z,95301.17
2018-09-14T17:58:03.045Z,95310.43
2018-09-14T18:00:29.034Z,95314.57
2018-09-14T18:02:55.014Z,95318.72
2018-09-14T18:05:20.999Z,95325.05
2018-09-14T18:07:47.016Z,95321.07
2018-09-14T18:10:13.004Z,95322.05
2018-09-14T18:12:38.984Z,95323.02
2018-09-14T18:15:04.962Z,95323.02
2018-09-14T18:17:30.944Z,95325.38
2018-09-14T18:19:56.917Z,95321.84
2018-09-14T18:22:22.924Z,95323.63
2018-09-14T18:24:48.901Z,95327.16
2018-09-14T18:27:14.876Z,95323.83
2018-09-14T18:29:40.866Z,95330.94
2018-09-14T18:32:06.844Z,95332.55
2018-09-14T18:34:32.881Z,95337.51
2018-09-14T18:36:58.853Z,95331.38
2018-09-14T18:39:24.828Z,95332.36
2018-09-14T18:41:50.813Z,95332.55
2018-09-14T18:44:16.794Z,95329.84
2018-09-14T18:46:42.801Z,95333.04
2018-09-14T18:49:08.766Z,95335.84
2018-09-14T18:51:34.736Z,95342.78
2018-09-14T18:54:00.761Z,95342.78
2018-09-14T18:56:26.748Z,95347.12
2018-09-14T18:58:52.746Z,95346.16
2018-09-14T19:01:18.726Z,95343.22
2018-09-14T19:03:44.712Z,95349.52
2018-09-14T19:06:10.698Z,95347.58
2018-09-14T19:08:36.675Z,95347.77
2018-09-14T19:11:02.654Z,95346.56
2018-09-14T19:13:28.726Z,95353.66
2018-09-14T19:15:54.620Z,95353.91
2018-09-14T19:18:20.589Z,95350.73
2018-09-14T19:20:46.572Z,95352.12
2018-09-14T19:23:12.556Z,95348.55
2018-09-14T19:25:38.543Z,95351.14
2018-09-14T19:28:04.517Z,95353.30
2018-09-14T19:30:30.511Z,95352.48
2018-09-14T19:32:56.497Z,95362.77
2018-09-14T19:35:22.509Z,95361.38
2018-09-14T19:37:48.482Z,95364.14
2018-09-14T19:40:14.461Z,95363.97
2018-09-14T19:42:40.445Z,95367.14
2018-09-14T19:45:06.434Z,95367.92
2018-09-14T19:47:32.416Z,95371.28
2018-09-14T19:49:58.408Z,95365.16
2018-09-14T19:52:24.378Z,95368.89
2018-09-14T19:54:50.416Z,95369.49
2018-09-14T19:57:16.392Z,95377.95
2018-09-14T19:59:42.480Z,95374.98
2018-09-14T20:02:08.417Z,95367.63
2018-09-14T20:04:34.397Z,95367.23
2018-09-14T20:07:00.388Z,95370.92
2018-09-14T20:09:26.446Z,95372.88
2018-09-14T20:11:52.426Z,95367.72
2018-09-14T20:14:18.473Z,95373.44
2018-09-14T20:16:44.456Z,95375.80
2018-09-14T20:19:10.445Z,95383.27
2018-09-14T20:21:36.428Z,95378.11
2018-09-14T20:24:02.461Z,95385.98
2018-09-14T20:26:28.440Z,95388.34
2018-09-14T20:28:54.760Z,95386.16
2018-09-14T20:31:20.745Z,95393.05
2018-09-14T20:33:46.724Z,95386.92
2018-09-14T20:36:12.785Z,95390.09
2018-09-14T20:38:38.949Z,95386.92
2018-09-14T20:41:04.930Z,95387.69
2018-09-14T20:43:31.008Z,95387.28
2018-09-14T20:45:56.900Z,95388.83
2018-09-14T20:48:23.241Z,95387.08
2018-09-14T20:50:49.222Z,95385.70
2018-09-14T20:53:15.197Z,95386.67
2018-09-14T20:55:41.307Z,95384.48
2018-09-14T20:58:07.288Z,95383.67
2018-09-14T21:00:33.319Z,95382.30
2018-09-14T21:02:59.302Z,95380.91
2018-09-14T21:05:25.320Z,95380.14
2018-09-14T21:07:51.276Z,95376.56
2018-09-14T21:10:17.256Z,95380.70
2018-09-14T21:12:43.237Z,95381.69
2018-09-14T21:15:09.225Z,95380.88
2018-09-14T21:17:35.217Z,95380.88
2018-09-14T21:20:01.199Z,95379.09
2018-09-14T21:22:27.188Z,95382.25
2018-09-14T21:24:53.171Z,95379.69
2018-09-14T21:27:19.162Z,95385.21
2018-09-14T21:29:45.143Z,95384.00
2018-09-14T21:32:11.117Z,95378.48
2018-09-14T21:34:37.100Z,95377.09
2018-09-14T21:37:03.078Z,95382.22
2018-09-14T21:39:29.054Z,95382.81
2018-09-14T21:41:55.049Z,95380.42
2018-09-14T21:44:21.049Z,95375.51
2018-09-14T21:46:47.050Z,95384.77
2018-09-14T21:49:13.050Z,95382.41
2018-09-14T21:51:39.024Z,95377.05
2018-09-14T21:54:05.097Z,95383.55
2018-09-14T21:56:31.083Z,95387.69
2018-09-14T21:58:57.148Z,95395.41
2018-09-14T22:01:23.153Z,95406.61
2018-09-14T22:03:49.166Z,95398.33
2018-09-14T22:06:15.199Z,95399.34
2018-09-14T22:08:41.200Z,95398.94
2018-09-14T22:11:07.155Z,95403.23
2018-09-14T22:13:33.135Z,95407.78
2018-09-14T22:15:59.120Z,95404.62
2018-09-14T22:18:25.149Z,95409.73
2018-09-14T22:20:51.130Z,95411.92
2018-09-14T22:23:17.158Z,95408.92
2018-09-14T22:25:43.147Z,95406.16
2018-09-14T22:28:09.123Z,95407.17
2018-09-14T22:30:35.147Z,95409.52
2018-09-14T22:33:01.113Z,95412.90
2018-09-14T22:35:27.132Z,95413.66
2018-09-14T22:37:53.064Z,95413.06
2018-09-14T22:40:19.041Z,95404.98
2018-09-14T22:42:45.013Z,95404.41
2018-09-14T22:45:11.002Z,95402.63
2018-09-14T22:47:36.976Z,95399.63
2018-09-14T22:50:02.988Z,95394.91
2018-09-14T22:52:28.970Z,95399.46
2018-09-14T22:54:54.945Z,95399.05
2018-09-14T22:57:20.939Z,95401.61
2018-09-14T22:59:46.931Z,95402.38
2018-09-14T23:02:12.911Z,95397.84
2018-09-14T23:04:38.891Z,95407.91
2018-09-14T23:07:04.885Z,95405.75
2018-09-14T23:09:38.380Z,95404.37
2018-09-14T23:12:04.359Z,95403.97
2018-09-14T23:14:33.346Z,95402.58
2018-09-14T23:16:59.320Z,95400.80
2018-09-14T23:19:25.304Z,95398.44
2018-09-14T23:21:51.282Z,95401.77
2018-09-14T23:24:17.277Z,95403.16
2018-09-14T23:26:43.255Z,95412.81
2018-09-14T23:29:09.249Z,95408.67
2018-09-14T23:31:35.232Z,95417.93
2018-09-14T23:34:01.224Z,95407.46
2018-09-14T23:36:27.208Z,95404.33
2018-09-14T23:38:53.195Z,95400.19
2018-09-14T23:41:19.214Z,95401.16
2018-09-14T23:43:45.199Z,95405.70
2018-09-14T23:46:11.178Z,95401.56
2018-09-14T23:48:37.163Z,95409.44
2018-09-14T23:51:03.152Z,95405.70
2018-09-14T23:53:29.137Z,95410.41
2018-09-14T23:55:55.119Z,95409.44
2018-09-14T23:58:21.099Z,95410.82
